Latest Coastal Weather Observations for Esperance

IDW60701

Issued at 6:43 pm WST Thursday 29 June 2017 (issued every 10 minutes, with the page automatically refreshed every 10 minutes)

About coastal observations | Map of coastal stations | Coastal observations for WA | Marine services | Other Formats
Station Details ID: 009789 Name: ESPERANCE Lat: -33.83 Lon: 121.89 Height: 25.0 m
Data from the previous 72 hours. | See also: Recent months at Esperance
Date/Time
WST
Temp
°C
Wind Pressure Rain since
9am
mm
Weather Cloud Vis
km
Sea
Height
m
Swell
Dir  Spd
kts
Gust
kts
hPa Trend Height
m
Period
s
Dir
29/06:30pm 9.6 N 4 5 1029.0 - 0.2 - - 10 - - - -
29/06:00pm 11.3 NNE 4 5 1029.1 F 0.2 - - 10 - - - -
29/05:30pm 12.1 NE 4 5 1029.2 - 0.2 - - 10 - - - -
29/05:00pm 12.7 N 5 6 1029.3 - 0.2 - - 10 - - - -
29/04:30pm 14.1 NNW 5 6 1029.5 - 0.2 - - 10 - - - -
29/04:00pm 14.9 N 7 10 1029.6 - 0.2 - - 10 - - - -
29/03:30pm 14.9 N 8 11 1029.8 - 0.2 - - 10 - - - -
29/03:00pm 15.5 N 10 14 1030.1 F 0.2 Recent precip. - 10 - - - -
29/02:30pm 15.3 N 9 11 1030.4 - 0.2 - - 10 - - - -
29/02:00pm 14.8 N 11 15 1030.7 - 0.0 - - 10 - - - -
29/01:30pm 14.6 N 11 14 1031.1 - 0.0 - - 10 - - - -
29/01:00pm 14.5 N 10 15 1031.6 - 0.0 - - 10 - - - -
29/12:30pm 14.7 N 11 15 1032.2 - 0.0 - - 10 - - - -
29/12:00pm 14.3 N 12 15 1032.9 F 0.0 - - 10 - - - -
29/11:30am 13.7 N 11 17 1033.4 - 0.0 - - 10 - - - -
29/11:00am 12.8 N 14 19 1034.0 - 0.0 - - 10 - - - -
29/10:30am 12.4 N 14 18 1034.6 - 0.0 - - 10 - - - -
29/10:00am 11.9 N 13 18 1034.9 - 0.0 - - 10 - - - -
29/09:30am 10.8 N 13 18 1035.1 - 0.0 - - 10 - - - -
29/09:00am 9.4 N 10 14 1035.3 F 0.0 - - 10 - - - -
29/08:30am 7.6 N 8 10 1035.4 - 0.0 - - 10 - - - -
29/08:00am 6.3 N 9 11 1035.3 - 0.0 - - 10 - - - -
29/07:30am 5.5 NNE 8 10 1035.1 - 0.0 - - 10 - - - -
29/07:00am 4.9 NNE 8 10 1035.0 - 0.0 - - 10 - - - -
29/06:30am 4.9 NNE 7 10 1034.8 - 0.0 - - 10 - - - -
29/06:00am 5.1 NNE 8 10 1034.6 F 0.0 - - 10 - - - -
29/05:30am 5.3 NNE 8 11 1034.4 - 0.0 - - 10 - - - -
29/05:00am 5.6 N 9 12 1034.2 - 0.0 - - 10 - - - -
29/04:30am 5.9 N 8 9 1034.2 - 0.0 - - 10 - - - -
29/04:00am 5.9 NNE 8 9 1034.3 - 0.0 - - 10 - - - -
29/03:30am 6.3 NNE 7 9 1034.5 - 0.0 - - 10 - - - -
29/03:00am 6.3 NNE 7 9 1034.8 S 0.0 - - 10 - - - -
29/02:30am 6.3 N 7 9 1034.9 - 0.0 - - 10 - - - -
29/02:00am 6.1 N 8 11 1034.9 - 0.0 - - 10 - - - -
29/01:30am 6.3 N 7 8 1034.9 - 0.0 - - 10 - - - -
29/01:00am 6.8 NNE 7 9 1035.0 - 0.0 - - 10 - - - -
29/12:30am 6.7 NNE 6 9 1035.2 - 0.0 - - 10 - - - -
29/12:00am 6.8 NNE 6 7 1035.4 R 0.0 - - 10 - - - -
 
Date/Time
WST
Temp
°C
Wind Pressure Rain since
9am
mm
Weather Cloud Vis
km
Sea
Height
m
Swell
Dir  Spd
kts
Gust
kts
hPa Trend Height
m
Period
s
Dir
28/11:30pm 6.8 NNE 5 5 1035.6 - 0.0 - - 10 - - - -
28/11:00pm 7.1 N 5 7 1035.6 - 0.0 - - 10 - - - -
28/10:30pm 7.6 NNE 5 6 1035.7 - 0.0 - - 10 - - - -
28/10:00pm 8.3 NNE 4 5 1035.6 - 0.0 - - 10 - - - -
28/09:30pm 9.1 NNE 4 5 1035.6 - 0.0 - - 10 - - - -
28/09:00pm 9.4 NE 5 6 1035.4 R 0.0 - - 10 - - - -
28/08:30pm 9.6 NNE 5 7 1035.6 - 0.0 - - 10 - - - -
28/08:00pm 11.7 E 4 5 1035.7 - 0.0 - - 10 - - - -
28/07:30pm 11.6 E 5 7 1035.4 - 0.0 - - 10 - - - -
28/07:00pm 11.9 ENE 5 6 1035.0 - 0.0 - Partly cloudy 10 - - - -
28/06:30pm 12.6 ENE 5 8 1034.8 - 0.0 - Cloudy 10 - - - -
28/06:00pm 12.8 ENE 5 8 1034.9 F 0.0 - Mostly cloudy 10 - - - -
28/05:30pm 12.7 NE 5 7 1034.9 - 0.0 - Cloudy 10 - - - -
28/05:00pm 13.2 E 5 8 1034.8 - 0.0 - Cloudy 10 - - - -
28/04:30pm 13.5 ESE 5 8 1034.6 - 0.0 - Partly cloudy 10 - - - -
28/04:00pm 13.9 ESE 4 7 1034.6 - 0.0 - Cloudy 10 - - - -
28/03:30pm 14.1 SE 8 11 1034.4 - 0.0 - Cloudy 10 - - - -
28/03:00pm 14.2 S 6 9 1034.5 R 0.0 - Cloudy 10 - - - -
28/02:30pm 14.2 SSE 8 12 1034.3 - 0.0 - Mostly cloudy 10 - - - -
28/02:00pm 14.5 SE 8 11 1034.1 - 0.0 - Mostly cloudy 10 - - - -
28/01:30pm 14.5 SSE 6 11 1034.1 - 0.0 - Mostly cloudy 10 - - - -
28/01:00pm 14.4 SSE 7 9 1034.2 - 0.0 - Mostly cloudy 10 - - - -
28/12:30pm 15.3 ESE 5 9 1034.5 - 0.0 - Mostly cloudy 10 - - - -
28/12:00pm 14.6 SSE 6 11 1034.8 R 0.0 - Partly cloudy 10 - - - -
28/11:30am 14.6 ESE 5 9 1035.1 - 0.0 - Mostly cloudy 10 - - - -
28/11:00am 13.8 ESE 6 8 1035.3 - 0.0 - Mostly cloudy 10 - - - -
28/10:30am 14.4 E 6 10 1035.6 - 0.0 - Mostly cloudy 10 - - - -
28/10:00am 14.3 E 6 9 1035.5 - 0.0 - Mostly cloudy 10 - - - -
28/09:30am 13.6 ENE 3 7 1035.4 - 0.0 - Mostly cloudy 10 - - - -
28/09:00am 13.1 NE 3 6 1035.0 R 2.6 - Mostly cloudy 10 - - - -
28/08:30am 12.4 NE 4 6 1034.7 - 2.6 - Mostly cloudy 10 - - - -
28/08:00am 10.8 NE 5 7 1034.5 - 2.6 - Mostly cloudy 10 - - - -
28/07:30am 10.3 NNE 5 6 1034.3 - 2.6 - Mostly cloudy 10 - - - -
28/07:00am 9.9 N 4 5 1034.1 - 2.6 - Mostly cloudy 10 - - - -
28/06:30am 9.7 N 4 6 1033.9 - 2.6 - Cloudy 10 - - - -
28/06:00am 9.6 N 4 4 1033.4 R 2.6 - Cloudy 10 - - - -
28/05:30am 9.9 NNW 2 4 1033.1 - 2.6 - Cloudy 10 - - - -
28/05:00am 9.7 WNW 4 6 1032.9 - 2.6 - Cloudy 10 - - - -
28/04:30am 9.5 W 5 6 1032.8 - 2.6 - Cloudy 10 - - - -
28/04:00am 9.6 WNW 4 5 1032.6 - 2.6 - Cloudy 10 - - - -
28/03:30am 9.6 NNW 4 4 1032.4 - 2.6 - Cloudy 10 - - - -
28/03:00am 9.3 NNW 4 6 1032.2 R 2.6 - Partly cloudy 10 - - - -
28/02:30am 10.1 N 1 4 1032.0 - 2.6 - Partly cloudy 10 - - - -
28/02:00am 10.3 N 4 5 1031.8 - 2.6 - Partly cloudy 10 - - - -
28/01:30am 10.6 NNE 5 6 1031.6 - 2.6 - Partly cloudy 10 - - - -
28/01:00am 10.9 NE 4 6 1031.5 - 2.6 - Partly cloudy 10 - - - -
28/12:30am 10.9 NNE 5 7 1031.4 - 2.6 - Partly cloudy 10 - - - -
28/12:00am 12.1 ENE 5 9 1031.4 R 2.6 - Mostly clear 10 - - - -
 
Date/Time
WST
Temp
°C
Wind Pressure Rain since
9am
mm
Weather Cloud Vis
km
Sea
Height
m
Swell
Dir  Spd
kts
Gust
kts
hPa Trend Height
m
Period
s
Dir
27/11:30pm 13.9 SE 11 16 1031.3 - 2.6 - - 10 - - - -
27/11:00pm 14.0 SE 13 18 1031.2 - 2.6 - Partly cloudy 10 - - - -
27/10:35pm 13.6 ESE 9 15 1031.1 - 2.6 - Partly cloudy 10 - - - -
27/10:30pm 13.6 SE 10 13 1031.0 - 2.6 - Partly cloudy 10 - - - -
27/10:18pm 13.2 SE 13 17 1030.9 - 2.6 - Partly cloudy 7 - - - -
27/10:00pm 13.9 SE 12 17 1031.0 - 2.4 - Partly cloudy 10 - - - -
27/09:30pm 13.6 SE 13 18 1030.8 - 2.4 - Partly cloudy 10 - - - -
27/09:00pm 13.6 SSE 10 17 1030.7 R 2.4 - Mostly cloudy 10 - - - -
27/08:30pm 13.3 SSE 13 20 1030.5 - 2.4 - Partly cloudy 10 - - - -
27/08:00pm 13.3 SE 14 19 1030.4 - 2.4 - Partly cloudy 10 - - - -
27/07:30pm 13.1 S 11 19 1030.0 - 2.4 - Partly cloudy 10 - - - -
27/07:17pm 13.4 SSE 11 14 1029.9 - 2.4 - Partly cloudy 10 - - - -
27/07:00pm 13.0 SSE 14 19 1029.8 - 2.4 - Partly cloudy 2 - - - -
27/06:55pm 13.1 SSE 14 21 1029.7 - 1.2 - Partly cloudy 6 - - - -
27/06:30pm 14.0 SSE 11 17 1029.2 - 0.6 - Partly cloudy 10 - - - -
27/06:00pm 13.7 S 9 13 1028.9 R 0.6 - Cloudy 10 - - - -
27/05:30pm 14.4 SSE 10 14 1028.5 - 0.6 - Partly cloudy 10 - - - -
27/05:00pm 14.1 S 7 11 1028.1 - 0.6 - Partly cloudy 10 - - - -
27/04:30pm 14.3 S 11 15 1027.8 - 0.6 - Partly cloudy 10 - - - -
27/04:00pm 14.7 SSE 9 12 1027.7 - 0.6 - Partly cloudy 10 - - - -
27/03:30pm 15.0 S 9 15 1027.6 - 0.6 - Partly cloudy 10 - - - -
27/03:00pm 15.4 S 10 13 1027.4 R 0.4 - Partly cloudy 10 - - - -
27/02:30pm 15.7 S 10 16 1027.1 - 0.4 - Mostly clear 10 - - - -
27/02:00pm 15.3 SSW 8 11 1026.9 - 0.4 - - 10 - - - -
27/01:30pm 15.1 SSW 5 7 1026.8 - 0.4 - Mostly clear 10 - - - -
27/01:00pm 13.6 S 4 5 1027.0 - 0.4 - Mostly clear 10 - - - -
27/12:30pm 13.8 S 8 11 1027.3 - 0.2 Showers Partly cloudy 8 - - - -
27/12:00pm 13.8 S 7 9 1027.3 R 0.2 Recent precip. Cloudy 10 - - - -
27/11:30am 14.9 S 2 5 1027.5 - 0.2 - Mostly clear 10 - - - -
27/11:00am 14.1 SW 5 6 1027.7 - 0.0 - Partly cloudy 10 - - - -
27/10:30am 15.3 WNW 4 5 1027.6 - 0.0 - Mostly clear 10 - - - -
27/10:00am 13.6 WNW 6 8 1027.7 - 0.0 - Mostly clear 10 - - - -
27/09:30am 12.8 WNW 5 7 1027.7 - 0.0 - Mostly clear 10 - - - -
27/09:00am 11.4 NW 7 9 1027.3 R 3.2 Recent precip. Mostly clear 10 - - - -
27/08:30am 10.5 NW 6 8 1027.2 - 3.0 - Mostly clear 10 - - - -
27/08:00am 9.7 NW 7 9 1026.8 - 3.0 - Mostly clear 10 - - - -
27/07:30am 8.8 NW 6 9 1026.4 - 3.0 - Mostly clear 10 - - - -
27/07:00am 8.4 NW 7 9 1026.0 - 3.0 - Mostly clear 10 - - - -
27/06:30am 8.4 NNW 6 8 1025.7 - 3.0 - - 10 - - - -
27/06:00am 8.7 NNW 5 6 1025.3 R 3.0 - Partly cloudy 10 - - - -
27/05:30am 9.1 WNW 6 7 1025.0 - 3.0 - Partly cloudy 10 - - - -
27/05:00am 9.3 NW 8 11 1024.9 - 3.0 - Partly cloudy 10 - - - -
27/04:30am 9.2 NW 8 11 1024.6 - 3.0 - - 10 - - - -
27/04:00am 9.0 NW 8 11 1024.5 - 3.0 - - 10 - - - -
27/03:30am 8.4 NNW 6 7 1024.6 - 3.0 - - 10 - - - -
27/03:00am 9.0 NW 6 7 1024.6 R 3.0 - - 10 - - - -
27/02:30am 8.9 NNW 5 7 1024.6 - 3.0 - - 10 - - - -
27/02:00am 9.6 NW 6 8 1024.7 - 3.0 - Partly cloudy 10 - - - -
27/01:30am 10.2 NW 5 7 1024.5 - 3.0 - Cloudy 10 - - - -
27/01:00am 10.4 NW 7 9 1024.4 - 3.0 - Cloudy 10 - - - -
27/12:30am 10.7 NNW 5 7 1024.4 - 3.0 - Cloudy 10 - - - -
27/12:00am 10.9 NNW 7 10 1024.4 F 3.0 - Cloudy 10 - - - -
 
Date/Time
WST
Temp
°C
Wind Pressure Rain since
9am
mm
Weather Cloud Vis
km
Sea
Height
m
Swell
Dir  Spd
kts
Gust
kts
hPa Trend Height
m
Period
s
Dir
26/11:30pm 10.9 NW 8 10 1024.7 - 3.0 - Partly cloudy 10 - - - -
26/11:00pm 11.2 WNW 7 11 1025.1 - 3.0 - Partly cloudy 10 - - - -
26/10:30pm 11.4 NW 7 9 1025.2 - 3.0 - Partly cloudy 10 - - - -
26/10:00pm 11.4 NNW 6 7 1025.1 - 3.0 - Partly cloudy 10 - - - -
26/09:30pm 11.5 NNW 9 11 1025.0 - 3.0 - Cloudy 10 - - - -
26/09:00pm 10.6 NW 5 7 1025.4 R 3.0 - Cloudy 10 - - - -
26/08:30pm 10.4 NNW 6 8 1025.4 - 3.0 - Partly cloudy 10 - - - -
26/08:00pm 10.1 N 5 6 1025.3 - 3.0 - - 10 - - - -
26/07:30pm 10.7 N 4 5 1025.3 - 3.0 - Partly cloudy 10 - - - -
26/07:00pm 11.2 N 4 4 1025.2 - 3.0 - Partly cloudy 10 - - - -

Other Formats:

Comma delimited format used in spreadsheet applications
http://www.bom.gov.au/fwo/IDW60701/IDW60701.94638.axf

JavaScript Object Notation format (JSON) in row-major order
http://www.bom.gov.au/fwo/IDW60701/IDW60701.94638.json